Irmo, South Carolina
Current Conditions -  °F | °C
As of 8:56 AM on Thursday 29 Jan 2015 (Local Time) from KCAE Reporting Station
Light Fog Light Fog  
Wind Chill: 31°   Ceiling: 22000
Heat Index: 31°   Visibility: 9mi
Dew Point: 26°   Wind: 0mph
Humidity: 82%   Direction: NA
Pressure: 30.37"   Gusts: NA
Location:  34.09°N, 81.18°W
Report Text: KCAE 291356Z 00000KT 9SM BCFG BKN220 M01/M03 A3037 RMK AO2 SLP285 T10061033
Loading
Personal Weather Stations






























Interactive Weather Map New forecast layout! Learn more

10-Day Weather Forecast

Advertisements
Track Severe Weather on mobile